Time;durP1;ratioP1;P1;durP2;ratioP2;P2;SDS_P1;SDS_P2;PMS_P1;PMS_P2;Temp;Humidity;BMP_temperature;BMP_pressure;BME280_temperature;BME280_humidity;BME280_pressure;Samples;Min_cycle;Max_cycle;Signal;HPM_P1;HPM_P2
2021/06/12 00:04:46;;;;;;;;;;;;;;;;;;;;;
2021/06/12 00:14:20;;;;;;;;;;;;;;;;;;;;;
2021/06/12 00:17:30;;;;;;;;;;;;;;;;;;;;;
2021/06/12 00:21:12;;;;;;;38.25;23.95;;;;;;;15.51;75.04;93039.38;5014029;28;20576;-91
2021/06/12 00:24:39;;;;;;;42.08;24.13;;;;;;;15.47;75.23;93035.81;4997350;28;20054;-91
2021/06/12 00:27:14;;;;;;;34.58;20.45;;;;;;;15.30;74.73;93014.63;4983241;28;20060;-93
2021/06/12 00:30:26;;;;;;;34.20;20.75;;;;;;;15.19;74.28;93004.31;4986202;28;20046;-91
2021/06/12 00:37:25;;;;;;;40.08;23.33;;;;;;;15.27;74.14;93025.78;5007136;28;20053;-91
2021/06/12 00:40:21;;;;;;;41.22;22.70;;;;;;;15.12;74.60;93009.22;5002536;28;20050;-91
2021/06/12 00:43:27;;;;;;;43.00;24.25;;;;;;;15.20;75.11;93026.19;4997474;28;20046;-90
2021/06/12 00:46:07;;;;;;;47.60;25.35;;;;;;;15.14;75.53;93028.16;4996900;28;20058;-91
2021/06/12 00:52:36;;;;;;;62.35;30.88;;;;;;;15.31;76.11;93058.34;5011387;28;20045;-92
2021/06/12 00:55:53;;;;;;;54.72;28.25;;;;;;;15.26;76.20;93054.00;4964003;28;20042;-91
2021/06/12 00:59:29;;;;;;;54.67;29.02;;;;;;;15.02;76.54;93025.31;5005800;28;20044;-90
2021/06/12 01:02:40;;;;;;;52.35;26.35;;;;;;;15.01;76.11;93026.38;5022290;28;20212;-90
2021/06/12 01:09:22;;;;;;;52.55;29.25;;;;;;;15.10;76.74;93050.16;5013708;28;20041;-91
2021/06/12 01:12:25;;;;;;;;;;;;;;;;;;;;;
2021/06/12 01:15:17;;;;;;;;;;;;;;;;;;;;;
2021/06/12 01:18:50;;;;;;;64.03;32.40;;;;;;;14.94;77.28;93036.56;5035655;28;20047;-90
2021/06/12 01:21:59;;;;;;;59.85;31.35;;;;;;;15.16;77.40;93059.53;4999218;28;20049;-91
2021/06/12 01:25:26;;;;;;;60.92;31.27;;;;;;;14.75;77.06;93005.88;5005025;28;20882;-90
2021/06/12 01:28:25;;;;;;;;;;;;;;;;;;;;;
2021/06/12 01:34:50;;;;;;;59.08;31.45;;;;;;;14.70;77.46;93018.38;5015875;28;20048;-90
2021/06/12 01:37:56;;;;;;;;;;;;;;;;;;;;;
2021/06/12 01:44:01;;;;;;;66.63;32.00;;;;;;;14.66;77.83;93012.94;5021951;28;20049;-91
2021/06/12 01:50:41;;;;;;;;;;;;;;;;;;;;;
2021/06/12 01:53:59;;;;;;;63.47;33.20;;;;;;;14.50;78.18;93001.94;5016125;28;20132;-90
2021/06/12 01:57:20;;;;;;;;;;;;;;;;;;;;;
2021/06/12 02:00:42;;;;;;;68.05;33.97;;;;;;;14.54;78.94;93015.28;5034454;28;20048;-90
2021/06/12 02:04:24;;;;;;;;;;;;;;;;;;;;;
2021/06/12 02:07:46;;;;;;;56.42;29.17;;;;;;;14.58;78.50;93029.47;5002480;28;20140;-91
2021/06/12 02:24:45;;;;;;;58.72;29.73;;;;;;;14.19;79.13;92990.50;5015978;28;20053;-90
2021/06/12 02:28:34;;;;;;;;;;;;;;;;;;;;;
2021/06/12 02:31:56;;;;;;;57.08;28.88;;;;;;;14.33;78.57;93018.38;5014045;28;20116;-90
2021/06/12 02:35:05;;;;;;;;;;;;;;;;;;;;;
2021/06/12 02:37:45;;;;;;;37.55;22.13;;;;;;;14.19;77.78;92991.28;4997454;28;20060;-92
2021/06/12 02:41:05;;;;;;;;;;;;;;;;;;;;;
2021/06/12 02:44:16;;;;;;;38.13;21.60;;;;;;;14.30;76.88;93008.44;5006540;28;20454;-90
2021/06/12 02:50:44;;;;;;;35.95;19.35;;;;;;;14.13;76.28;92987.97;5024653;28;20046;-89
2021/06/12 02:53:33;;;;;;;31.50;17.42;;;;;;;14.15;75.63;92988.44;4991884;28;20048;-92
2021/06/12 02:56:45;;;;;;;32.95;18.17;;;;;;;14.27;75.35;93008.22;4986862;28;20140;-91
2021/06/12 02:59:57;;;;;;;;;;;;;;;;;;;;;
2021/06/12 03:03:25;;;;;;;;;;;;;;;;;;;;;
2021/06/12 03:07:11;;;;;;;31.55;17.25;;;;;;;14.11;74.66;92986.72;5026614;28;20095;-90
2021/06/12 03:10:05;;;;;;;32.70;17.98;;;;;;;14.10;74.80;92993.06;4965597;28;20056;-91
2021/06/12 03:13:28;;;;;;;;;;;;;;;;;;;;;
2021/06/12 03:16:17;;;;;;;24.80;15.02;;;;;;;14.00;74.74;92999.28;4997056;28;20049;-90
2021/06/12 03:19:23;;;;;;;25.02;15.73;;;;;;;13.89;74.44;92990.84;5015114;28;20056;-90
2021/06/12 03:22:36;;;;;;;24.42;13.95;;;;;;;14.19;74.02;93043.94;5000160;28;20053;-90
2021/06/12 03:25:45;;;;;;;20.45;13.25;;;;;;;13.82;73.96;92998.34;4991062;28;20068;-89
2021/06/12 03:29:05;;;;;;;22.77;12.27;;;;;;;13.90;73.39;92999.50;5008836;28;20057;-89
2021/06/12 03:35:51;;;;;;;17.90;10.95;;;;;;;13.68;72.18;92993.06;5002309;28;20049;-90
2021/06/12 03:38:45;;;;;;;18.85;10.63;;;;;;;13.75;70.89;93003.97;4996136;28;20050;-89
2021/06/12 03:45:41;;;;;;;15.30;10.27;;;;;;;13.65;70.97;92995.53;5032525;28;20058;-89
2021/06/12 03:48:35;;;;;;;17.48;10.45;;;;;;;13.57;71.35;92985.69;5014593;28;20049;-91
2021/06/12 03:51:14;;;;;;;18.33;10.73;;;;;;;13.92;71.69;93045.50;4971451;28;20057;-91
2021/06/12 03:54:25;;;;;;;18.77;11.43;;;;;;;13.60;71.53;92995.59;5000249;28;20046;-92
2021/06/12 03:57:36;;;;;;;;;;;;;;;;;;;;;
2021/06/12 04:00:46;;;;;;;21.35;11.32;;;;;;;13.58;71.42;92984.59;4995149;28;20041;-90
2021/06/12 04:03:51;;;;;;;22.23;12.02;;;;;;;13.82;71.42;93022.00;5007596;28;20104;-91
2021/06/12 04:06:58;;;;;;;21.10;12.45;;;;;;;13.91;71.40;93022.88;4995372;28;20073;-89
2021/06/12 04:10:09;;;;;;;20.92;12.52;;;;;;;14.12;71.24;93040.94;4976490;28;20050;-91
2021/06/12 04:12:58;;;;;;;25.23;13.07;;;;;;;13.80;71.47;92983.91;5030341;28;20072;-90
2021/06/12 04:20:05;;;;;;;;;;;;;;;;;;;;;
2021/06/12 04:26:17;;;;;;;26.08;13.70;;;;;;;13.99;71.82;92966.16;5014143;28;20068;-90
2021/06/12 04:29:34;;;;;;;19.27;12.02;;;;;;;14.18;71.96;92984.44;4984629;28;20058;-90
2021/06/12 04:32:23;;;;;;;21.10;12.45;;;;;;;14.19;71.00;92972.84;5014593;28;20051;-92
2021/06/12 04:35:28;;;;;;;27.58;14.38;;;;;;;14.26;71.07;92975.84;5016299;28;20128;-91
2021/06/12 04:41:29;;;;;;;31.60;17.27;;;;;;;14.34;71.90;92962.00;4979092;28;20057;-90
2021/06/12 04:44:40;;;;;;;;;;;;;;;;;;;;;
2021/06/12 04:47:50;;;;;;;31.87;17.33;;;;;;;14.67;72.02;92985.50;5008840;28;20057;-91
2021/06/12 04:51:18;;;;;;;;;;;;;;;;;;;;;
2021/06/12 04:54:52;;;;;;;;;;;;;;;;;;;;;
2021/06/12 04:58:03;;;;;;;;;;;;;;;;;;;;;
2021/06/12 05:01:03;;;;;;;18.05;11.05;;;;;;;15.24;69.52;93008.66;5034847;28;20033;-91
2021/06/12 05:03:40;;;;;;;20.10;11.07;;;;;;;15.34;68.92;93018.22;5001537;28;20053;-92
2021/06/12 05:06:34;;;;;;;;;;;;;;;;;;;;;
2021/06/12 05:16:00;;;;;;;;;;;;;;;;;;;;;
2021/06/12 05:18:57;;;;;;;17.23;10.32;;;;;;;15.79;66.35;93011.00;5016247;28;20396;-92
2021/06/12 05:21:39;;;;;;;16.95;10.32;;;;;;;15.96;65.35;93023.47;4998329;28;20524;-93
2021/06/12 05:24:53;;;;;;;15.68;9.73;;;;;;;16.14;65.95;93034.84;5009010;28;20049;-92
2021/06/12 05:28:09;;;;;;;18.08;10.23;;;;;;;16.24;65.84;93026.66;5002384;28;20058;-93
2021/06/12 05:31:35;;;;;;;20.35;10.18;;;;;;;16.40;65.74;93031.50;5028587;28;20514;-92
2021/06/12 05:34:35;;;;;;;;;;;;;;;;;;;;;
2021/06/12 05:37:41;;;;;;;18.15;11.07;;;;;;;16.72;64.82;93032.16;5018430;28;20053;-92
2021/06/12 05:40:46;;;;;;;20.00;11.18;;;;;;;16.80;64.27;93021.63;5007475;28;20053;-91
2021/06/12 05:44:13;;;;;;;17.90;11.00;;;;;;;17.59;62.88;93061.22;5010350;28;20098;-92
2021/06/12 05:47:14;;;;;;;;;;;;;;;;;;;;;
2021/06/12 05:50:30;;;;;;;20.63;13.18;;;;;;;23.34;48.47;93009.09;4987424;28;20045;-91
2021/06/12 05:57:00;;;;;;;;;;;;;;;;;;;;;
2021/06/12 06:00:32;;;;;;;;;;;;;;;;;;;;;
2021/06/12 06:03:22;;;;;;;;;;;;;;;28.80;37.00;93038.84;5032079;28;20107;-92
2021/06/12 06:14:02;;;;;;;;;;;;;;;;;;;;;
2021/06/12 06:17:09;;;;;;;15.82;10.93;;;;;;;29.73;33.67;92995.44;5009228;28;20034;-92
2021/06/12 06:23:33;;;;;;;20.92;12.18;;;;;;;30.47;33.27;93000.72;4993107;28;20046;-93
2021/06/12 06:30:37;;;;;;;;;;;;;;;;;;;;;
2021/06/12 06:33:25;;;;;;;17.90;11.38;;;;;;;29.32;34.34;92995.22;5019876;28;20117;-92
2021/06/12 06:39:54;;;;;;;;;;;;;;;;;;;;;
2021/06/12 06:43:29;;;;;;;23.83;11.35;;;;;;;25.69;42.42;93026.31;4991631;28;20049;-92
2021/06/12 06:50:21;;;;;;;;;;;;;;;;;;;;;
2021/06/12 06:53:55;;;;;;;18.58;13.32;;;;;;;21.84;52.46;93001.22;5012717;28;20438;-92
2021/06/12 07:00:00;;;;;;;21.48;12.90;;;;;;;21.57;53.35;93018.81;5008251;28;20045;-92
2021/06/12 07:03:14;;;;;;;;;;;;;;;;;;;;;
2021/06/12 07:06:43;;;;;;;22.10;13.57;;;;;;;20.68;57.11;93014.50;5036593;28;20049;-93
2021/06/12 07:10:04;;;;;;;;;;;;;;;;;;;;;
2021/06/12 07:13:40;;;;;;;;;;;;;;;;;;;;;
2021/06/12 07:20:45;;;;;;;22.98;14.40;;;;;;;20.76;56.43;93033.00;5013724;28;20042;-94
2021/06/12 07:24:24;;;;;;;25.35;14.70;;;;;;;21.16;57.36;93047.38;4999061;28;20049;-93
2021/06/12 07:34:24;;;;;;;;;;;;;;;;;;;;;
2021/06/12 07:45:49;;;;;;;;;;;;;;;;;;;;;
2021/06/12 07:49:11;;;;;;;;;;;;;;;;;;;;;
2021/06/12 08:03:17;;;;;;;;;;;;;;;;;;;;;
2021/06/12 08:14:35;;;;;;;;;;;;;;;;;;;;;
2021/06/12 08:17:21;;;;;;;22.30;14.48;;;;;;;21.40;56.92;93019.91;5013453;28;20084;-93
2021/06/12 08:20:06;;;;;;;25.90;15.63;;;;;;;21.07;58.31;93055.50;5011280;28;20046;-92
2021/06/12 08:26:50;;;;;;;22.73;14.80;;;;;;;21.37;55.05;93058.63;5015057;28;20097;-93
2021/06/12 08:33:54;;;;;;;;;;;;;;;;;;;;;
2021/06/12 08:37:46;;;;;;;;;;;;;;;;;;;;;
2021/06/12 08:41:30;;;;;;;;;;;;;;;;;;;;;
2021/06/12 08:45:03;;;;;;;24.52;13.55;;;;;;;21.24;56.76;93005.78;4888515;29;20423;-95
2021/06/12 08:48:59;;;;;;;;;;;;;;;;;;;;;
2021/06/12 09:05:03;;;;;;;;;;;;;;;;;;;;;
2021/06/12 09:09:18;;;;;;;20.48;13.25;;;;;;;21.95;53.50;93028.16;4860728;29;20065;-94
2021/06/12 09:24:20;;;;;;;;;;;;;;;22.07;51.06;93064.63;4825055;29;20038;-95
2021/06/12 09:55:46;;;;;;;;;;;;;;;;;;;;;
2021/06/12 10:19:23;;;;;;;;;;;;;;;;;;;;;
2021/06/12 10:34:43;;;;;;;;;;;;;;;;;;;;;
2021/06/12 10:46:23;;;;;;;;;;;;;;;;;;;;;
2021/06/12 12:57:28;;;;;;;15.50;10.33;;;;;;;26.47;41.56;92992.47;4920357;29;20054;-94
2021/06/12 13:01:04;;;;;;;;;;;;;;;;;;;;;
2021/06/12 13:05:22;;;;;;;18.25;12.68;;;;;;;26.03;43.20;92929.72;4878374;29;20044;-94
2021/06/12 13:21:42;;;;;;;;;;;;;;;;;;;;;
2021/06/12 13:25:38;;;;;;;;;;;;;;;;;;;;;
2021/06/12 13:49:46;;;;;;;;;;;;;;;;;;;;;
2021/06/12 13:56:42;;;;;;;;;;;;;;;;;;;;;
2021/06/12 14:08:12;;;;;;;;;;;;;;;;;;;;;
2021/06/12 14:19:49;;;;;;;;;;;;;;;;;;;;;
2021/06/12 14:31:09;;;;;;;;;;;;;;;;;;;;;
2021/06/12 14:34:50;;;;;;;;;;;;;;;;;;;;;
2021/06/12 14:43:00;;;;;;;;;;;;;;;;;;;;;
2021/06/12 14:46:19;;;;;;;17.50;12.40;;;;;;;26.95;42.92;92895.69;4844290;29;20046;-94
2021/06/12 14:53:55;;;;;;;19.17;13.45;;;;;;;26.73;43.19;92935.91;4909778;29;20047;-94
2021/06/12 15:01:50;;;;;;;;;;;;;;;;;;;;;
2021/06/12 15:29:41;;;;;;;;;;;;;;;;;;;;;
2021/06/12 15:33:15;;;;;;;;;;;;;;;;;;;;;
2021/06/12 15:37:05;;;;;;;;;;;;;;;;;;;;;
2021/06/12 15:40:48;;;;;;;;;;;;;;;;;;;;;
2021/06/12 15:47:43;;;;;;;22.85;13.82;;;;;;;26.95;43.13;92899.16;4900369;29;20124;-91
2021/06/12 15:50:51;;;;;;;;;;;;;;;;;;;;;
2021/06/12 15:54:03;;;;;;;23.58;13.80;;;;;;;27.01;42.35;92872.69;4947998;28;20457;-90
2021/06/12 15:57:42;;;;;;;;;;;;;;;;;;;;;
2021/06/12 16:01:01;;;;;;;;;;;;;;;;;;;;;
2021/06/12 16:04:26;;;;;;;;;;;;;;;;;;;;;
2021/06/12 16:15:30;;;;;;;23.08;13.63;;;;;;;27.92;41.49;92883.22;4935589;28;20039;-91
2021/06/12 16:36:41;;;;;;;;;;;;;;;;;;;;;
2021/06/12 16:43:42;;;;;;;;;;;;;;;;;;;;;
2021/06/12 16:47:01;;;;;;;;;;;;;;;;;;;;;
2021/06/12 16:50:40;;;;;;;22.90;13.90;;;;;;;26.98;44.68;92905.69;4965643;28;20051;-91
2021/06/12 17:06:44;;;;;;;;;;;;;;;;;;;;;
2021/06/12 17:17:36;;;;;;;21.95;15.07;;;;;;;26.14;46.33;92911.78;5117437;27;20136;-79
2021/06/12 17:20:02;;;;;;;23.52;15.55;;;;;;;26.12;46.66;92908.69;5079155;28;20045;-78
2021/06/12 17:22:28;;;;;;;21.27;15.48;;;;;;;26.10;45.98;92904.84;5089861;28;20041;-79
2021/06/12 17:24:54;;;;;;;26.52;16.50;;;;;;;26.17;45.64;92910.25;5095839;28;20092;-79
2021/06/12 17:27:24;;;;;;;24.60;16.02;;;;;;;26.09;46.33;92912.13;5103810;28;20037;-80
2021/06/12 17:29:50;;;;;;;22.55;15.55;;;;;;;25.91;46.56;92914.66;5078632;28;20071;-81
2021/06/12 17:32:15;;;;;;;23.60;16.63;;;;;;;25.75;47.03;92917.59;5096805;28;20028;-79
2021/06/12 17:34:41;;;;;;;28.95;18.27;;;;;;;25.65;47.51;92912.16;5099054;28;20048;-80
2021/06/12 17:37:07;;;;;;;54.83;27.77;;;;;;;25.52;47.88;92912.41;5098371;28;20035;-77
2021/06/12 17:39:32;;;;;;;29.25;15.95;;;;;;;25.39;48.55;92915.75;5096613;28;20396;-79
2021/06/12 17:41:58;;;;;;;23.00;14.77;;;;;;;25.33;48.47;92923.31;5093744;28;20468;-79
2021/06/12 17:44:23;;;;;;;28.17;16.38;;;;;;;25.32;48.24;92917.19;5094747;28;20051;-81
2021/06/12 17:46:49;;;;;;;32.38;17.13;;;;;;;25.34;47.96;92916.84;5088951;28;20063;-81
2021/06/12 17:49:15;;;;;;;23.23;15.82;;;;;;;25.23;48.52;92914.06;5085081;28;20081;-80
2021/06/12 17:51:40;;;;;;;37.83;20.17;;;;;;;25.10;49.25;92910.06;5089621;28;20063;-79
2021/06/12 17:54:06;;;;;;;30.40;18.33;;;;;;;25.02;49.81;92919.19;5054821;28;20062;-82
2021/06/12 17:56:32;;;;;;;26.08;16.85;;;;;;;24.88;50.12;92919.75;5076429;28;20471;-79
2021/06/12 17:58:58;;;;;;;29.00;15.70;;;;;;;24.78;50.59;92915.84;5072334;28;20037;-79
2021/06/12 18:01:42;;;;;;;22.08;14.80;;;;;;;24.64;51.42;92916.44;5105431;28;20078;-79
2021/06/12 18:04:08;;;;;;;73.88;15.55;;;;;;;24.49;52.29;92920.06;5092314;28;20116;-79
2021/06/12 18:06:34;;;;;;;22.63;13.88;;;;;;;24.36;52.38;92924.06;5085566;28;20462;-78
2021/06/12 18:08:59;;;;;;;21.60;13.80;;;;;;;24.25;52.54;92922.03;5093436;28;20221;-79
2021/06/12 18:11:25;;;;;;;25.90;13.40;;;;;;;24.12;53.92;92925.28;5090447;28;20056;-79
2021/06/12 18:14:10;;;;;;;25.33;13.80;;;;;;;24.02;55.05;92926.63;5092173;28;20028;-78
2021/06/12 18:16:40;;;;;;;19.83;13.55;;;;;;;23.87;56.11;92925.66;5108804;27;20500;-78
2021/06/12 18:19:06;;;;;;;22.25;14.73;;;;;;;23.79;56.18;92938.13;5131624;28;20381;-79
2021/06/12 18:21:33;;;;;;;22.33;14.38;;;;;;;23.70;56.48;92932.22;5130391;28;20054;-78
2021/06/12 18:24:02;;;;;;;25.13;14.82;;;;;;;23.63;56.90;92934.78;5124449;28;20035;-78
2021/06/12 18:26:47;;;;;;;24.98;15.75;;;;;;;23.51;57.08;92937.63;5130604;28;20531;-78
2021/06/12 18:29:13;;;;;;;24.45;14.30;;;;;;;23.39;56.72;92935.91;5115905;28;20035;-77
2021/06/12 18:32:16;;;;;;;22.48;15.45;;;;;;;23.37;56.10;92949.63;5117620;28;20042;-78
2021/06/12 18:38:08;;;;;;;22.38;14.65;;;;;;;23.12;57.39;92935.81;5117333;28;20042;-78
2021/06/12 18:40:34;;;;;;;27.50;17.60;;;;;;;23.01;57.32;92937.50;5104345;28;20580;-79
2021/06/12 18:42:59;;;;;;;25.67;15.23;;;;;;;22.89;57.52;92935.72;5115611;28;20039;-79
2021/06/12 18:45:25;;;;;;;22.38;14.25;;;;;;;22.63;57.50;92910.47;5100103;28;20040;-77
2021/06/12 18:47:51;;;;;;;23.33;15.45;;;;;;;22.71;57.67;92951.38;5107610;28;20126;-78
2021/06/12 18:50:18;;;;;;;24.27;15.98;;;;;;;22.55;58.12;92943.44;5097784;28;20066;-79
2021/06/12 18:52:44;;;;;;;28.95;14.70;;;;;;;22.44;58.28;92947.78;5108402;28;20054;-78
2021/06/12 18:55:12;;;;;;;21.60;14.50;;;;;;;22.36;58.46;92938.06;5110918;28;20035;-79
2021/06/12 18:57:38;;;;;;;25.60;14.60;;;;;;;22.29;58.69;92940.59;5100323;28;20039;-78
2021/06/12 19:00:10;;;;;;;19.50;14.25;;;;;;;22.18;58.89;92933.13;5107746;28;20066;-78
2021/06/12 19:02:35;;;;;;;21.45;14.30;;;;;;;22.07;59.04;92931.34;5108780;27;20104;-80
2021/06/12 19:05:06;;;;;;;25.35;14.68;;;;;;;21.98;58.87;92944.84;5110759;28;20040;-79
2021/06/12 19:07:32;;;;;;;21.88;14.20;;;;;;;21.88;58.99;92937.38;5078008;28;20110;-78
2021/06/12 19:09:58;;;;;;;22.95;14.40;;;;;;;21.80;59.02;92947.88;5111652;28;20032;-78
2021/06/12 19:12:24;;;;;;;24.20;14.10;;;;;;;21.70;59.13;92945.72;5108857;28;20103;-80
2021/06/12 19:14:49;;;;;;;22.27;14.25;;;;;;;21.64;59.55;92952.44;5092714;28;20120;-80
2021/06/12 19:17:15;;;;;;;23.88;14.48;;;;;;;21.57;59.73;92954.91;5104509;28;20043;-80
2021/06/12 19:19:41;;;;;;;21.55;14.75;;;;;;;21.55;59.77;92955.25;5111516;28;20043;-80
2021/06/12 19:22:07;;;;;;;22.13;15.00;;;;;;;21.50;60.00;92952.06;5110352;28;20031;-78
2021/06/12 19:24:34;;;;;;;19.98;13.98;;;;;;;21.49;59.86;92955.84;5109818;28;20051;-80
2021/06/12 19:27:00;;;;;;;25.77;14.40;;;;;;;21.46;60.17;92959.97;5109518;28;20031;-79
2021/06/12 19:29:26;;;;;;;21.02;14.52;;;;;;;21.40;60.28;92954.13;5092572;28;20032;-78
2021/06/12 19:31:51;;;;;;;24.27;14.63;;;;;;;21.38;60.21;92964.31;5104261;28;20436;-80
2021/06/12 19:34:17;;;;;;;24.92;14.38;;;;;;;21.32;60.43;92963.03;5110039;28;20039;-79
2021/06/12 19:36:58;;;;;;;18.63;13.73;;;;;;;21.26;60.72;92969.72;5117825;28;20048;-77
2021/06/12 19:39:35;;;;;;;25.73;14.30;;;;;;;21.19;60.82;92972.19;5115406;28;20496;-78
2021/06/12 19:42:03;;;;;;;22.30;14.50;;;;;;;21.13;61.19;92970.88;5118482;28;20067;-78
2021/06/12 19:44:29;;;;;;;24.77;14.57;;;;;;;21.07;61.40;92969.56;5109191;28;20524;-79
2021/06/12 19:47:15;;;;;;;23.63;14.75;;;;;;;20.98;61.61;92978.50;5108748;28;20117;-76
2021/06/12 19:49:41;;;;;;;29.15;14.48;;;;;;;20.91;61.93;92988.91;5106818;28;20100;-79
2021/06/12 19:52:07;;;;;;;29.23;14.50;;;;;;;20.85;61.88;92984.16;5072859;28;20522;-78
2021/06/12 19:54:33;;;;;;;23.30;14.57;;;;;;;20.81;61.75;92986.75;5113064;28;20043;-78
2021/06/12 19:57:00;;;;;;;20.40;14.40;;;;;;;20.76;61.92;92990.44;5110912;28;20031;-79
2021/06/12 19:59:28;;;;;;;21.25;14.52;;;;;;;20.69;62.21;92992.09;5109173;28;20049;-80
2021/06/12 20:01:53;;;;;;;21.13;14.68;;;;;;;20.65;62.18;92989.34;5113609;28;20036;-79
2021/06/12 20:04:19;;;;;;;22.27;14.85;;;;;;;20.58;62.42;92997.88;5116751;28;20047;-80
2021/06/12 20:06:46;;;;;;;22.45;14.27;;;;;;;20.52;62.74;92991.22;5100140;28;20040;-79
2021/06/12 20:09:14;;;;;;;22.13;14.10;;;;;;;20.49;62.16;92999.06;5111079;28;20066;-78
2021/06/12 20:11:40;;;;;;;18.13;13.65;;;;;;;20.45;61.17;92999.00;5109877;28;20043;-78
2021/06/12 20:14:06;;;;;;;23.73;13.88;;;;;;;20.44;60.83;93002.75;5109251;28;20123;-79
2021/06/12 20:16:32;;;;;;;19.38;12.30;;;;;;;20.42;60.26;93001.53;5110443;28;20083;-78
2021/06/12 20:18:57;;;;;;;21.05;12.40;;;;;;;20.39;59.15;93001.09;5103453;27;20072;-80
2021/06/12 20:21:23;;;;;;;16.70;11.82;;;;;;;20.41;57.94;93006.09;5109573;27;20040;-79
2021/06/12 20:23:49;;;;;;;18.05;11.63;;;;;;;20.41;57.26;93008.75;5106646;28;20035;-79
2021/06/12 20:26:16;;;;;;;18.42;10.35;;;;;;;20.46;53.00;93000.53;5110769;28;20019;-78
2021/06/12 20:28:42;;;;;;;14.07;9.43;;;;;;;20.51;51.99;93007.50;5117587;28;20043;-79
2021/06/12 20:31:08;;;;;;;15.63;10.27;;;;;;;20.59;50.67;93002.09;5092858;28;20036;-78
2021/06/12 20:33:34;;;;;;;16.23;10.20;;;;;;;20.59;52.04;93002.09;5102069;28;20111;-78
2021/06/12 20:36:00;;;;;;;14.32;9.85;;;;;;;20.54;51.40;93002.31;5114191;28;20254;-79
2021/06/12 20:38:26;;;;;;;14.93;9.43;;;;;;;20.45;52.42;93001.66;5087626;28;20493;-77
2021/06/12 20:40:52;;;;;;;21.23;9.77;;;;;;;20.37;53.17;93008.63;5111074;28;20077;-79
2021/06/12 20:43:18;;;;;;;14.90;9.25;;;;;;;20.28;53.06;93009.84;5084262;28;20463;-78
2021/06/12 20:45:45;;;;;;;15.25;9.02;;;;;;;20.18;52.32;92998.56;5110000;28;20524;-77
2021/06/12 20:48:11;;;;;;;17.73;9.20;;;;;;;20.13;51.52;93004.13;5106684;28;20047;-79
2021/06/12 20:50:37;;;;;;;14.15;8.43;;;;;;;20.03;51.23;92998.47;5115011;28;20042;-79
2021/06/12 20:53:03;;;;;;;14.77;7.63;;;;;;;20.00;49.06;92999.91;5113860;28;20047;-78
2021/06/12 20:55:29;;;;;;;13.85;7.55;;;;;;;19.96;48.31;93004.34;5113980;27;20117;-78
2021/06/12 20:57:54;;;;;;;10.93;6.90;;;;;;;19.90;47.92;93005.66;5110730;28;20027;-78
2021/06/12 21:00:21;;;;;;;11.93;7.05;;;;;;;19.86;47.71;93010.88;5083061;28;20112;-78
2021/06/12 21:02:47;;;;;;;15.57;6.85;;;;;;;19.82;46.50;93009.19;5113110;28;20046;-78
2021/06/12 21:05:14;;;;;;;9.27;6.50;;;;;;;19.75;45.41;93010.50;5107671;28;20031;-79
2021/06/12 21:07:43;;;;;;;11.40;6.75;;;;;;;19.69;45.69;93011.81;5099631;28;20539;-78
2021/06/12 21:10:10;;;;;;;11.73;6.55;;;;;;;19.65;45.61;93013.56;5098892;28;20024;-78
2021/06/12 21:12:35;;;;;;;8.80;6.10;;;;;;;19.62;45.61;93016.88;5100531;28;20084;-77
2021/06/12 21:15:01;;;;;;;9.63;6.40;;;;;;;19.60;44.92;93016.44;5100289;28;20040;-78
2021/06/12 21:17:27;;;;;;;8.57;6.03;;;;;;;19.59;44.67;93012.25;5085617;28;20048;-78
2021/06/12 21:19:53;;;;;;;10.20;6.88;;;;;;;19.55;44.91;93019.31;5069349;28;20094;-78
2021/06/12 21:22:19;;;;;;;11.75;6.22;;;;;;;19.53;44.97;93024.16;5072026;28;20033;-78
2021/06/12 21:24:45;;;;;;;10.63;6.30;;;;;;;19.48;44.16;93016.41;5082010;28;20036;-79
2021/06/12 21:27:10;;;;;;;11.13;6.40;;;;;;;19.45;44.93;93022.38;5078392;28;20028;-78
2021/06/12 21:29:36;;;;;;;9.13;6.07;;;;;;;19.44;44.85;93021.59;5064952;28;20068;-78
2021/06/12 21:32:03;;;;;;;10.85;6.90;;;;;;;19.44;44.76;93026.91;5080116;28;20024;-78
2021/06/12 21:34:29;;;;;;;9.23;6.25;;;;;;;19.46;44.31;93023.94;5079249;28;20497;-78
2021/06/12 21:36:54;;;;;;;7.85;5.80;;;;;;;19.53;40.39;93021.50;5081495;28;20047;-79
2021/06/12 21:39:21;;;;;;;9.80;6.60;;;;;;;19.83;39.67;93018.72;5066579;28;20032;-77
2021/06/12 21:41:47;;;;;;;10.73;6.28;;;;;;;20.10;37.81;93020.72;5077362;28;20107;-78
2021/06/12 21:44:13;;;;;;;8.70;6.20;;;;;;;20.47;37.45;93026.03;5069956;28;20506;-78
2021/06/12 21:46:39;;;;;;;8.77;6.00;;;;;;;20.48;38.12;93019.59;5069222;28;20087;-78
2021/06/12 21:49:05;;;;;;;9.40;5.57;;;;;;;20.57;38.05;93027.47;5068001;28;20490;-78
2021/06/12 21:51:31;;;;;;;11.35;5.88;;;;;;;20.72;37.24;93032.09;5085274;28;20036;-78
2021/06/12 21:53:57;;;;;;;10.95;6.47;;;;;;;20.67;38.39;93031.53;5070890;28;20081;-78
2021/06/12 21:56:22;;;;;;;9.63;6.20;;;;;;;20.72;38.76;93034.00;5071672;28;20040;-78
2021/06/12 21:58:48;;;;;;;11.63;7.32;;;;;;;20.72;39.54;93036.66;5080632;28;20401;-78
2021/06/12 22:04:49;;;;;;;11.02;7.18;;;;;;;20.36;39.92;92985.06;5071168;28;20059;-91
2021/06/12 22:08:14;;;;;;;;;;;;;;;;;;;;;
2021/06/12 22:14:52;;;;;;;11.80;6.93;;;;;;;20.27;41.37;92984.41;5051731;28;20049;-91
2021/06/12 22:18:26;;;;;;;11.85;7.03;;;;;;;20.50;41.85;93035.22;5054910;28;20037;-90
2021/06/12 22:24:43;;;;;;;11.05;7.45;;;;;;;20.23;42.36;93016.19;5075860;28;20025;-91
2021/06/12 22:28:23;;;;;;;9.80;7.07;;;;;;;20.37;42.27;93039.75;5043702;28;20128;-90
2021/06/12 22:32:05;;;;;;;10.27;7.13;;;;;;;20.43;41.43;93029.69;5047213;28;20040;-92
2021/06/12 22:38:43;;;;;;;10.00;7.10;;;;;;;20.59;40.91;93015.38;5009097;28;20183;-91
2021/06/12 22:45:12;;;;;;;15.30;8.25;;;;;;;20.66;40.67;93008.72;5043030;28;20045;-90
2021/06/12 22:51:49;;;;;;;11.80;7.03;;;;;;;20.23;42.69;92988.81;5010584;28;20048;-90
2021/06/12 22:58:27;;;;;;;11.77;7.22;;;;;;;20.06;43.50;93025.16;5060450;28;20057;-92
2021/06/12 23:01:24;;;;;;;;;;;;;;;20.06;42.26;93030.47;5042984;28;20440;-91
2021/06/12 23:04:42;;;;;;;9.75;6.80;;;;;;;19.87;41.48;92998.34;5021292;28;19987;-93
2021/06/12 23:11:20;;;;;;;;;;;;;;;;;;;;;
2021/06/12 23:14:21;;;;;;;11.27;6.68;;;;;;;19.85;42.79;93003.97;5043411;28;20076;-92
2021/06/12 23:17:20;;;;;;;;;;;;;;;;;;;;;
2021/06/12 23:20:54;;;;;;;12.63;7.05;;;;;;;19.95;41.71;93019.50;5052048;28;20084;-90
2021/06/12 23:30:51;;;;;;;9.90;6.80;;;;;;;19.95;41.50;93034.69;5057632;28;20049;-92
2021/06/12 23:33:51;;;;;;;10.68;6.90;;;;;;;19.93;41.56;93020.94;5038322;28;20053;-91
2021/06/12 23:37:01;;;;;;;;;;;;;;;;;;;;;
2021/06/12 23:40:18;;;;;;;10.27;6.68;;;;;;;19.85;41.91;93008.53;5041612;28;20045;-90
2021/06/12 23:46:56;;;;;;;;;;;;;;;;;;;;;
